createdAt,value
2018-06-11T00:41:38.913Z,20.5
2018-06-11T00:42:45.851Z,19.2
2018-06-11T00:43:53.061Z,19.1
2018-06-11T00:45:00.270Z,19.1
2018-06-11T00:46:07.473Z,19
2018-06-11T00:47:14.683Z,19
2018-06-11T00:48:21.607Z,19
2018-06-11T00:49:28.815Z,19
2018-06-11T00:50:36.020Z,19
2018-06-11T00:51:43.235Z,19.1
2018-06-11T00:52:50.444Z,19
2018-06-11T00:53:57.658Z,19.1
2018-06-11T00:55:04.865Z,19
2018-06-11T00:56:12.071Z,19
2018-06-11T00:57:19.281Z,19
2018-06-11T00:58:26.483Z,19
2018-06-11T00:59:33.690Z,19
2018-06-11T01:00:40.896Z,19
2018-06-11T01:01:48.106Z,19
2018-06-11T01:02:55.312Z,19
2018-06-11T01:04:02.522Z,19
2018-06-11T01:05:09.733Z,19
2018-06-11T01:06:16.942Z,19.1
2018-06-11T01:07:24.150Z,19.1
2018-06-11T01:08:31.354Z,19.1
2018-06-11T01:09:38.290Z,19.1
2018-06-11T01:10:45.502Z,19.1
2018-06-11T01:11:52.713Z,19.1
2018-06-11T01:12:59.649Z,19.1
2018-06-11T01:14:06.582Z,19.1
2018-06-11T01:15:13.785Z,19.1
2018-06-11T01:16:20.992Z,19.1
2018-06-11T01:17:28.203Z,19.1
2018-06-11T01:18:35.143Z,19.2
2018-06-11T01:19:42.353Z,19.2
2018-06-11T01:20:49.259Z,19.2
2018-06-11T01:21:56.464Z,19.2
2018-06-11T01:23:03.674Z,19.2
2018-06-11T01:24:10.886Z,19.2
2018-06-11T01:25:18.093Z,19.2
2018-06-11T01:26:25.301Z,19.2
2018-06-11T01:27:32.507Z,19.2
2018-06-11T01:28:39.726Z,19.2
2018-06-11T01:29:46.932Z,19.2
2018-06-11T01:30:54.176Z,19.2
2018-06-11T01:32:01.101Z,19.2
2018-06-11T01:33:08.302Z,19.3
2018-06-11T01:34:15.235Z,19.3
2018-06-11T01:35:22.439Z,19.3
2018-06-11T01:36:29.376Z,19.3
2018-06-11T01:37:36.580Z,19.2
2018-06-11T01:38:43.788Z,19.2
2018-06-11T01:39:50.990Z,19.2
2018-06-11T01:40:58.200Z,19.2
2018-06-11T01:42:05.430Z,19.2
2018-06-11T01:43:12.638Z,19.2
2018-06-11T01:44:19.842Z,19.2
2018-06-11T01:45:27.049Z,19.2
2018-06-11T01:46:34.256Z,19.2
2018-06-11T01:47:41.470Z,19.2
2018-06-11T01:48:48.678Z,19.2
2018-06-11T01:49:55.883Z,19.2
2018-06-11T01:51:03.090Z,19.2
2018-06-11T01:52:10.293Z,19.2
2018-06-11T01:53:17.504Z,19.2
2018-06-11T01:54:24.714Z,19.2
2018-06-11T01:55:31.936Z,19.2
2018-06-11T01:56:40.145Z,19.3
2018-06-11T01:57:48.345Z,19.2
2018-06-11T01:58:56.546Z,19.2
2018-06-11T02:00:03.751Z,19.3
2018-06-11T02:01:10.960Z,19.2
2018-06-11T02:02:18.165Z,19.2
2018-06-11T02:03:25.371Z,19.2
2018-06-11T02:04:32.578Z,19.2
2018-06-11T02:05:39.790Z,19.1
2018-06-11T02:06:46.729Z,19.1
2018-06-11T02:07:53.929Z,19.1
2018-06-11T02:09:00.864Z,19.1
2018-06-11T02:10:07.801Z,19.2
2018-06-11T02:11:15.008Z,19.1
2018-06-11T02:12:22.208Z,19
2018-06-11T02:13:29.419Z,19
2018-06-11T02:14:36.628Z,19
2018-06-11T02:15:43.842Z,19
2018-06-11T02:16:51.049Z,18.9
2018-06-11T02:17:58.256Z,18.9
2018-06-11T02:19:05.465Z,18.9
2018-06-11T02:20:12.674Z,18.9
2018-06-11T02:21:19.882Z,18.9
2018-06-11T02:22:26.819Z,18.9
2018-06-11T02:23:34.023Z,18.9
2018-06-11T02:24:41.242Z,18.9
2018-06-11T02:25:48.177Z,18.9
2018-06-11T02:26:55.386Z,19
2018-06-11T02:28:02.595Z,18.9
2018-06-11T02:29:09.803Z,19
2018-06-11T02:30:17.022Z,19
2018-06-11T02:31:24.219Z,18.9
2018-06-11T02:32:31.156Z,19
2018-06-11T02:33:38.572Z,18.9
2018-06-11T02:34:45.781Z,18.9
2018-06-11T02:35:52.987Z,18.9
2018-06-11T02:37:00.194Z,18.9
2018-06-11T02:38:07.400Z,18.9
2018-06-11T02:39:14.329Z,18.9
2018-06-11T02:40:21.533Z,18.9
2018-06-11T02:41:28.196Z,18.9
2018-06-11T02:42:35.132Z,18.9
2018-06-11T02:43:42.339Z,18.9
2018-06-11T02:44:49.548Z,18.9
2018-06-11T02:45:56.757Z,18.9
2018-06-11T02:47:03.978Z,18.8
2018-06-11T02:48:11.398Z,18.8
2018-06-11T02:49:18.610Z,18.8
2018-06-11T02:50:25.821Z,18.8
2018-06-11T02:51:33.031Z,18.8
2018-06-11T02:52:40.237Z,18.8
2018-06-11T02:53:47.450Z,18.7
2018-06-11T02:54:54.661Z,18.8
2018-06-11T02:56:01.869Z,18.8
2018-06-11T02:57:09.077Z,18.8
2018-06-11T02:58:16.294Z,18.8
2018-06-11T02:59:23.501Z,18.8
2018-06-11T03:00:30.729Z,18.8
2018-06-11T03:01:37.923Z,18.7
2018-06-11T03:02:45.134Z,18.7
2018-06-11T03:03:52.340Z,18.7
2018-06-11T03:04:59.546Z,18.8
2018-06-11T03:06:06.754Z,18.7
2018-06-11T03:07:13.963Z,18.7
2018-06-11T03:08:21.170Z,18.7
2018-06-11T03:09:28.380Z,18.7
2018-06-11T03:10:35.318Z,18.7
2018-06-11T03:11:42.524Z,18.6
2018-06-11T03:12:49.749Z,18.7
2018-06-11T03:13:56.956Z,18.7
2018-06-11T03:15:04.163Z,18.6
2018-06-11T03:16:11.371Z,18.6
2018-06-11T03:17:18.577Z,18.6
2018-06-11T03:18:25.782Z,18.6
2018-06-11T03:19:32.990Z,18.6
2018-06-11T03:20:40.200Z,18.6
2018-06-11T03:21:47.404Z,18.6
2018-06-11T03:22:54.612Z,18.5
2018-06-11T03:24:01.824Z,18.6
2018-06-11T06:25:45.385Z,18.6
2018-06-11T06:26:52.601Z,23.2
2018-06-11T06:27:59.821Z,22.8
2018-06-11T06:29:07.030Z,22.9
2018-06-11T06:30:13.970Z,22.9
2018-06-11T06:31:20.907Z,23.1
2018-06-11T06:32:28.118Z,23.3
2018-06-11T06:33:35.333Z,23.5
2018-06-11T06:34:42.661Z,23.6
2018-06-11T06:35:50.151Z,23.5
2018-06-11T06:36:57.360Z,23.6
2018-06-11T06:38:04.300Z,23.8
2018-06-11T06:39:11.509Z,24.1
2018-06-11T06:40:18.718Z,24.3
2018-06-11T06:41:25.927Z,24.2
2018-06-11T06:42:32.865Z,24.3
2018-06-11T06:43:40.072Z,24.5
2018-06-11T06:44:47.284Z,24.8
2018-06-11T06:45:54.493Z,25
2018-06-11T06:47:01.431Z,25.1
2018-06-11T06:48:08.642Z,25.1
2018-06-11T06:49:15.850Z,25.3
2018-06-11T06:50:23.062Z,25.5
2018-06-11T06:51:30.270Z,25.5
2018-06-11T06:52:37.482Z,25.6
2018-06-11T06:53:44.502Z,25.6
2018-06-11T06:54:51.851Z,25.5
2018-06-11T06:55:59.066Z,25.5
2018-06-11T06:57:06.276Z,25.6
2018-06-11T06:58:13.485Z,25.8
2018-06-11T06:59:20.698Z,25.9
2018-06-11T07:00:27.909Z,26
2018-06-11T07:01:35.119Z,25.8
2018-06-11T07:02:42.334Z,25.8
2018-06-11T07:03:49.545Z,25.6
2018-06-11T07:04:56.754Z,25.5
2018-06-11T07:06:03.961Z,25.5
2018-06-11T07:07:11.174Z,25.6
2018-06-11T07:08:18.379Z,25.7
2018-06-11T07:09:25.590Z,25.7
2018-06-11T07:10:32.801Z,25.8
2018-06-11T07:11:40.011Z,25.8
2018-06-11T07:12:47.229Z,26
2018-06-11T07:13:54.434Z,26.2
2018-06-11T07:15:01.642Z,26.3
2018-06-11T07:16:08.856Z,26.4
2018-06-11T07:17:16.066Z,26.4
2018-06-11T07:18:23.280Z,26.6
2018-06-11T07:19:30.493Z,26.9
2018-06-11T07:20:37.703Z,27.1
2018-06-11T07:21:44.915Z,27.2
2018-06-11T07:22:52.127Z,27.2
2018-06-11T07:23:59.334Z,27.3
2018-06-11T07:25:06.552Z,27.5
2018-06-11T07:26:13.762Z,27.6
2018-06-11T07:27:20.700Z,27.4
2018-06-11T07:28:27.911Z,27.4
2018-06-11T07:29:34.847Z,27.5
2018-06-11T07:30:42.061Z,27.2
2018-06-11T07:31:49.264Z,27
2018-06-11T07:32:56.476Z,26.6
2018-06-11T07:34:03.686Z,26.9
2018-06-11T07:35:10.898Z,27
2018-06-11T07:36:17.830Z,26.9
2018-06-11T07:37:25.041Z,27.1
2018-06-11T07:38:32.252Z,27.5
2018-06-11T07:39:39.471Z,27.8
2018-06-11T07:40:46.675Z,27.9
2018-06-11T07:41:53.887Z,27.9
2018-06-11T07:43:00.822Z,28
2018-06-11T07:44:08.038Z,27.9
2018-06-11T07:45:15.252Z,28
2018-06-11T07:46:22.478Z,28.3
2018-06-11T07:47:29.689Z,28.5
2018-06-11T07:48:36.905Z,28.4
2018-06-11T07:49:44.113Z,28.3
2018-06-11T09:27:22.991Z,28.7
2018-06-11T09:59:54.930Z,28.2
2018-06-11T10:01:02.141Z,30.9
2018-06-11T10:02:09.353Z,31
2018-06-11T10:03:16.567Z,30.8
2018-06-11T10:04:23.779Z,30.9
2018-06-11T10:05:30.990Z,31.1
2018-06-11T10:06:38.209Z,31.4
2018-06-11T10:07:45.416Z,31.5
2018-06-11T10:08:52.633Z,31.6
2018-06-11T10:09:59.571Z,31.4
2018-06-11T10:11:06.524Z,30.8
2018-06-11T10:12:13.804Z,30.7
2018-06-11T10:13:21.162Z,30.4
2018-06-11T10:14:28.380Z,30.4
2018-06-11T10:15:35.589Z,30.7
2018-06-11T10:16:42.799Z,31.1
2018-06-11T10:17:50.022Z,31.1
2018-06-11T10:18:57.228Z,31.3
2018-06-11T10:20:04.445Z,31.7
2018-06-11T10:21:11.661Z,32
2018-06-11T10:22:18.873Z,32.1
2018-06-11T10:23:26.092Z,31.5
2018-06-11T10:24:33.312Z,30.9
2018-06-11T10:25:40.240Z,30
2018-06-11T10:26:47.457Z,29.7
2018-06-11T10:27:54.671Z,29.5
2018-06-11T10:29:01.890Z,29.8
2018-06-11T10:30:09.104Z,30.3
2018-06-11T10:31:16.041Z,30.9
2018-06-11T10:32:23.404Z,31.1
2018-06-11T10:33:30.356Z,31
2018-06-11T10:34:37.569Z,31
2018-06-11T10:35:44.783Z,31.2
2018-06-11T10:36:51.997Z,31.6
2018-06-11T10:37:58.939Z,31.8
2018-06-11T10:39:06.251Z,32.2
2018-06-11T10:40:13.516Z,32.2
2018-06-11T10:41:20.731Z,32.3
2018-06-11T10:42:27.942Z,32.3
2018-06-11T10:43:34.881Z,32.4
2018-06-11T10:44:42.093Z,32.4
2018-06-11T10:45:49.304Z,31.7
2018-06-11T10:46:55.965Z,30.9
2018-06-11T10:48:02.903Z,30.6
2018-06-11T10:49:10.111Z,30.5
2018-06-11T10:50:17.323Z,30.6
2018-06-11T10:51:24.532Z,30.4
2018-06-11T10:52:31.749Z,30
2018-06-11T10:53:38.965Z,29.4
2018-06-11T10:54:45.909Z,29.4
2018-06-11T10:55:53.123Z,29.3
2018-06-11T10:57:00.346Z,29.1
2018-06-11T10:58:07.780Z,29.1
2018-06-11T10:59:15.141Z,29.6
2018-06-11T11:00:22.350Z,29.9
2018-06-11T11:01:29.569Z,29.5
2018-06-11T11:02:36.790Z,29.8
2018-06-11T11:03:44.005Z,29.5
2018-06-11T11:04:51.231Z,29.4
2018-06-11T11:05:58.431Z,29.4
2018-06-11T11:07:05.645Z,29.2
2018-06-11T11:08:12.904Z,29.1
2018-06-11T17:07:07.962Z,29
2018-06-11T17:08:14.901Z,20.6
2018-06-11T17:09:22.124Z,20.4
2018-06-11T17:10:29.336Z,20.3
2018-06-11T17:11:35.998Z,20.3
2018-06-11T17:12:42.659Z,20.3
2018-06-11T17:13:49.872Z,20.3
2018-06-11T17:14:56.810Z,20.3
2018-06-11T17:16:03.754Z,20.4
2018-06-11T17:17:10.956Z,20.4
2018-06-11T17:18:18.172Z,20.4
2018-06-11T17:19:25.379Z,20.4
2018-06-11T17:20:32.601Z,20.4
2018-06-11T17:21:39.805Z,20.4
2018-06-11T17:22:47.023Z,20.4
2018-06-11T17:23:54.221Z,20.4
2018-06-11T17:25:01.438Z,20.3
2018-06-11T17:26:08.654Z,20.4
2018-06-11T17:27:15.870Z,20.4
2018-06-11T17:28:23.084Z,20.4
2018-06-11T17:29:30.294Z,20.5
2018-06-11T17:30:37.504Z,20.4
2018-06-11T17:31:44.759Z,20.4
2018-06-11T17:32:52.037Z,20.4
2018-06-11T17:33:59.007Z,20.4
2018-06-11T17:35:06.224Z,20.3
2018-06-11T17:36:13.438Z,20.3
2018-06-11T17:37:20.644Z,20.3
2018-06-11T17:38:27.857Z,20.3
2018-06-11T17:39:34.795Z,20.3
2018-06-11T17:40:42.007Z,20.3
2018-06-11T17:41:49.232Z,20.3
2018-06-11T17:42:56.446Z,20.3
2018-06-11T17:44:03.674Z,20.2
2018-06-11T17:45:10.883Z,20.2
2018-06-11T17:46:17.822Z,20.2
2018-06-11T17:47:25.033Z,20.2
2018-06-11T17:48:32.275Z,20.2
2018-06-11T17:49:39.488Z,20.2
2018-06-11T17:50:46.449Z,20.2
2018-06-11T17:51:53.670Z,20.1
2018-06-11T17:53:00.890Z,20.1
2018-06-11T17:54:07.853Z,20.1
2018-06-11T17:55:15.098Z,20.1
2018-06-11T17:56:22.042Z,20.1
2018-06-11T17:57:29.454Z,20.1
2018-06-11T17:58:37.103Z,20.1
2018-06-11T17:59:44.352Z,20
2018-06-11T18:00:51.309Z,20
2018-06-11T18:01:58.537Z,20
2018-06-11T18:03:05.768Z,20
2018-06-11T18:04:13.139Z,20
2018-06-11T18:05:20.666Z,20
2018-06-11T18:06:28.124Z,19.9
2018-06-11T18:07:35.348Z,19.9
2018-06-11T18:08:42.574Z,19.9
2018-06-11T18:09:49.533Z,19.9
2018-06-11T18:10:56.758Z,19.8
2018-06-11T18:12:03.991Z,19.8
2018-06-11T18:13:10.948Z,19.8
2018-06-11T18:14:18.178Z,19.8
2018-06-11T18:15:25.410Z,19.8
2018-06-11T18:16:32.645Z,19.8
2018-06-11T18:17:39.870Z,19.8
2018-06-11T18:18:47.102Z,19.8
2018-06-11T18:19:54.335Z,19.8
2018-06-11T18:21:01.569Z,19.7
2018-06-11T18:22:08.796Z,19.7
2018-06-11T18:23:15.746Z,19.6
2018-06-11T18:24:22.980Z,19.6
2018-06-11T18:25:30.212Z,19.6
2018-06-11T18:26:37.433Z,19.6
2018-06-11T18:27:44.660Z,19.6
2018-06-11T18:28:51.880Z,19.6
2018-06-11T18:29:59.105Z,19.6
2018-06-11T18:31:06.583Z,19.6
2018-06-11T18:32:14.010Z,19.6
2018-06-11T18:33:21.227Z,19.6
2018-06-11T18:34:28.456Z,19.6
2018-06-11T18:35:35.454Z,19.6
2018-06-11T18:36:42.917Z,19.6
2018-06-11T18:37:50.153Z,19.6
2018-06-11T18:38:57.400Z,19.6
2018-06-11T18:40:04.634Z,19.6
2018-06-11T18:41:11.592Z,19.6
2018-06-11T18:42:18.837Z,19.5
2018-06-11T18:43:26.077Z,19.5
2018-06-11T18:44:33.304Z,19.5
2018-06-11T18:45:40.550Z,19.5
2018-06-11T18:46:47.512Z,19.5
2018-06-11T18:47:54.480Z,19.5
2018-06-11T18:49:01.925Z,19.5
2018-06-11T18:50:09.164Z,19.5
2018-06-11T18:51:16.607Z,19.5
2018-06-11T18:52:23.580Z,19.5
2018-06-11T18:53:30.822Z,19.5
2018-06-11T18:54:38.060Z,19.5
2018-06-11T18:55:45.298Z,19.5
2018-06-11T18:56:52.527Z,19.5
2018-06-11T18:57:59.767Z,19.5
2018-06-11T18:59:06.991Z,19.4
2018-06-11T19:00:14.220Z,19.3
2018-06-11T19:01:21.460Z,19.3
2018-06-11T19:02:28.861Z,19.3
2018-06-11T19:03:36.098Z,19.4
2018-06-11T19:04:43.130Z,19.4
2018-06-11T19:05:50.396Z,19.4
2018-06-11T19:06:57.554Z,19.4
2018-06-11T19:08:04.796Z,19.3
2018-06-11T19:09:12.233Z,19.4
2018-06-11T19:10:19.459Z,19.3
2018-06-11T19:11:26.699Z,19.3
2018-06-11T19:12:33.938Z,19.3
2018-06-11T19:13:41.178Z,19.3
2018-06-11T19:14:48.359Z,19.3
2018-06-11T19:15:55.309Z,19.2
2018-06-11T19:17:02.532Z,19.1
2018-06-11T19:18:09.489Z,19
2018-06-11T19:19:16.722Z,19
2018-06-11T19:20:23.945Z,19
2018-06-11T19:21:31.180Z,19.1
2018-06-11T19:22:38.406Z,19.1
2018-06-11T19:23:45.644Z,19.1
2018-06-11T19:24:52.870Z,19.1
2018-06-11T19:26:00.110Z,19.1
2018-06-11T19:27:07.353Z,19.1
2018-06-11T19:28:14.589Z,19.1
2018-06-11T19:29:21.814Z,19
2018-06-11T19:30:29.036Z,19
2018-06-11T19:31:36.476Z,19
2018-06-11T19:32:43.710Z,19
2018-06-11T19:33:51.502Z,19
2018-06-11T19:34:58.848Z,19.1
2018-06-11T19:36:06.189Z,19.1
2018-06-11T19:37:13.424Z,19.1
2018-06-11T19:38:20.710Z,19.1
2018-06-11T19:39:28.022Z,19.1
2018-06-11T19:40:35.249Z,19.1
2018-06-11T19:41:42.480Z,19.1
2018-06-11T19:42:49.697Z,19.1
2018-06-11T19:43:57.091Z,19.1
2018-06-11T19:45:04.316Z,19.1
2018-06-11T19:46:11.551Z,19.1
2018-06-11T19:47:18.776Z,19.1
2018-06-11T19:48:26.006Z,19
2018-06-11T19:49:32.963Z,18.9
2018-06-11T19:50:40.186Z,18.9
2018-06-11T19:51:47.418Z,18.9
2018-06-11T19:52:54.646Z,18.8
2018-06-11T19:54:01.862Z,18.8
2018-06-11T19:55:09.092Z,18.8
2018-06-11T19:56:16.349Z,18.8
2018-06-11T19:57:23.582Z,18.7
2018-06-11T19:58:30.969Z,18.7
2018-06-11T19:59:38.209Z,18.6
2018-06-11T20:00:45.444Z,18.6
2018-06-11T20:01:52.670Z,18.5
2018-06-11T20:02:59.897Z,18.4
2018-06-11T20:04:07.119Z,18.4
2018-06-11T20:05:14.602Z,18.4
2018-06-11T20:06:21.954Z,18.4
2018-06-11T20:07:29.177Z,18.4
2018-06-11T20:08:36.409Z,18.4
2018-06-11T20:09:43.363Z,18.4
2018-06-11T20:10:50.596Z,18.4
2018-06-11T20:11:57.822Z,18.4
2018-06-11T20:13:04.778Z,18.4
2018-06-11T20:14:12.021Z,18.3
2018-06-11T20:15:19.251Z,18.3
2018-06-11T20:16:26.481Z,18.3
2018-06-11T20:17:33.422Z,18.4
2018-06-11T20:18:40.696Z,18.4
2018-06-11T20:19:47.912Z,18.4
2018-06-11T22:00:05.775Z,18.3
2018-06-11T22:01:12.982Z,18.3
2018-06-11T22:02:20.188Z,18.3
2018-06-11T22:03:27.586Z,18.3
2018-06-11T22:04:35.005Z,18.3
2018-06-11T22:05:42.219Z,18.3
2018-06-11T22:06:49.179Z,18.3
2018-06-11T22:07:56.157Z,18.3
2018-06-11T22:09:03.378Z,18.3
2018-06-11T22:10:10.585Z,18.3
2018-06-11T22:11:17.800Z,18.3
2018-06-11T22:12:25.009Z,18.3
2018-06-11T22:13:32.217Z,18.3
2018-06-11T22:14:39.159Z,18.3
2018-06-11T22:15:46.364Z,18.3
2018-06-11T22:16:53.570Z,18.3
2018-06-11T22:18:00.783Z,18.3
2018-06-11T22:19:07.716Z,18.3
2018-06-11T22:20:14.922Z,18.3
2018-06-11T22:21:22.128Z,18.3
2018-06-11T22:22:29.336Z,18.3
2018-06-11T22:23:36.547Z,18.3
2018-06-11T22:24:43.487Z,18.3
2018-06-11T22:25:50.693Z,18.3
2018-06-11T22:26:57.902Z,18.3
2018-06-11T22:28:05.117Z,18.3
2018-06-11T22:29:12.314Z,18.3
2018-06-11T22:30:19.688Z,18.3
2018-06-11T22:31:26.936Z,18.3
2018-06-11T22:32:34.146Z,18.3
2018-06-11T22:33:41.355Z,18.2
2018-06-11T22:34:48.565Z,18.2
2018-06-11T22:35:55.774Z,18.2
2018-06-11T22:37:02.984Z,18.2
2018-06-11T22:38:10.198Z,18.1
2018-06-11T22:39:17.414Z,18.1
2018-06-11T22:40:24.632Z,18
2018-06-11T22:41:31.897Z,18
2018-06-11T22:42:39.274Z,18
2018-06-11T22:43:46.510Z,18
2018-06-11T22:44:53.721Z,18
2018-06-11T22:46:00.654Z,18
2018-06-11T22:47:07.862Z,18
2018-06-11T22:48:15.068Z,18
2018-06-11T22:49:22.276Z,18
2018-06-11T22:50:29.484Z,18
2018-06-11T22:51:36.692Z,17.9
2018-06-11T22:52:43.902Z,18
2018-06-11T22:53:50.556Z,18
2018-06-11T22:54:57.768Z,18
2018-06-11T22:56:04.975Z,18
2018-06-11T22:57:11.908Z,18
2018-06-11T22:58:19.119Z,18
2018-06-11T22:59:26.323Z,17.9
2018-06-11T23:00:33.537Z,18
2018-06-11T23:01:40.734Z,18
2018-06-11T23:02:47.947Z,18
2018-06-11T23:03:55.161Z,17.9
2018-06-11T23:05:02.366Z,17.9
2018-06-11T23:06:09.301Z,17.9
2018-06-11T23:07:16.506Z,17.9
2018-06-11T23:08:23.722Z,18
2018-06-11T23:09:30.919Z,18
2018-06-11T23:10:38.131Z,18
2018-06-11T23:11:45.343Z,17.9
2018-06-11T23:12:52.556Z,18
2018-06-11T23:13:59.770Z,18
2018-06-11T23:15:06.981Z,18
2018-06-11T23:16:14.185Z,18
2018-06-11T23:17:21.392Z,18
2018-06-11T23:18:28.337Z,18.1
2018-06-11T23:19:35.263Z,18.1
2018-06-11T23:20:42.468Z,18
2018-06-11T23:21:49.677Z,18
2018-06-11T23:22:56.889Z,18
2018-06-11T23:24:04.210Z,18
2018-06-11T23:25:11.483Z,17.9
2018-06-11T23:26:18.421Z,17.9
2018-06-11T23:27:25.626Z,17.8
2018-06-11T23:28:32.832Z,17.8
2018-06-11T23:29:39.767Z,17.8
2018-06-11T23:30:46.968Z,17.8
2018-06-11T23:31:54.180Z,17.9
2018-06-11T23:33:01.389Z,17.9
2018-06-11T23:34:08.591Z,17.9
2018-06-11T23:35:15.531Z,17.9
2018-06-11T23:36:22.464Z,17.9
2018-06-11T23:37:29.674Z,17.9
2018-06-11T23:38:36.884Z,17.9
2018-06-11T23:39:44.087Z,17.8
2018-06-11T23:40:51.292Z,17.9
2018-06-11T23:41:58.502Z,17.8
2018-06-11T23:43:05.705Z,17.8
2018-06-11T23:44:12.639Z,17.9
2018-06-11T23:45:19.844Z,17.9
2018-06-11T23:46:27.052Z,17.9
2018-06-11T23:47:34.264Z,17.9
2018-06-11T23:48:41.480Z,17.9
2018-06-11T23:49:48.688Z,17.8
2018-06-11T23:50:55.898Z,17.9
2018-06-11T23:52:03.106Z,17.9
2018-06-11T23:53:10.316Z,17.9
2018-06-11T23:54:17.523Z,17.9
2018-06-11T23:55:24.737Z,17.9
2018-06-11T23:56:31.959Z,18
2018-06-11T23:57:39.170Z,17.9
2018-06-11T23:58:46.371Z,18
2018-06-11T23:59:53.313Z,18
